Time;durP1;ratioP1;P1;durP2;ratioP2;P2;SDS_P1;SDS_P2;PMS_P1;PMS_P2;Temp;Humidity;BMP_temperature;BMP_pressure;BME280_temperature;BME280_humidity;BME280_pressure;Samples;Min_cycle;Max_cycle;Signal;HPM_P1;HPM_P2
2021/12/05 00:17:37;;;;;;;;;;;;;;;;;;2056884;28;19937;-46
2021/12/05 00:19:14;;;;;;;;;;;;;;;;;;2057798;28;20012;-47
2021/12/05 00:21:41;;;;;;;;;;;;;;;;;;2054162;28;19957;-47
2021/12/05 00:22:44;;;;;;;;;;;;;;;;;;2056070;28;19958;-48
2021/12/05 00:23:47;;;;;;;;;;;;;;;;;;2055006;28;20017;-47
2021/12/05 00:24:50;;;;;;;;;;;;;;;;;;2057491;28;20430;-47
2021/12/05 00:25:53;;;;;;;;;;;;;;;;;;2057095;28;19969;-47
2021/12/05 00:26:57;;;;;;;;;;;;;;;;;;2055937;28;19930;-47
2021/12/05 00:28:19;;;;;;;;;;;;;;;;;;2057647;28;20343;-46
2021/12/05 00:29:26;;;;;;;;;;;;;;;;;;2052915;28;19927;-47
2021/12/05 00:30:49;;;;;;;;;;;;;;;;;;2057463;28;20371;-47
2021/12/05 00:32:02;;;;;;;;;;;;;;;;;;2055636;28;19926;-47
2021/12/05 00:33:19;;;;;;;;;;;;;;;;;;2056212;28;20383;-47
2021/12/05 00:34:35;;;;;;;;;;;;;;;;;;2057621;28;20331;-47
2021/12/05 00:36:41;;;;;;;;;;;;;;;;;;2055725;28;20013;-47
2021/12/05 00:41:48;;;;;;;;;;;;;;;;;;2055251;28;20011;-48
2021/12/05 00:45:57;;;;;;;;;;;;;;;;;;2048791;29;20006;-47
2021/12/05 00:47:12;;;;;;;;;;;;;;;;;;2051971;28;19930;-47
2021/12/05 00:51:24;;;;;;;;;;;;;;;;;;2043986;28;20423;-49
2021/12/05 00:54:30;;;;;;;;;;;;;;;;;;2032274;29;20014;-47
2021/12/05 00:55:39;;;;;;;;;;;;;;;;;;2056959;28;20014;-46
2021/12/05 00:57:04;;;;;;;;;;;;;;;;;;2055199;28;20024;-47
2021/12/05 00:59:42;;;;;;;;;;;;;;;;;;2055625;28;20058;-47
2021/12/05 01:01:24;;;;;;;;;;;;;;;;;;2057330;28;20285;-46
2021/12/05 01:02:44;;;;;;;;;;;;;;;;;;2054596;28;20315;-50
2021/12/05 01:05:25;;;;;;;;;;;;;;;;;;2039032;29;19962;-47
2021/12/05 01:09:25;;;;;;;;;;;;;;;;;;2057445;28;19926;-47
2021/12/05 01:10:49;;;;;;;;;;;;;;;;;;2055397;28;20029;-47
2021/12/05 01:12:12;;;;;;;;;;;;;;;;;;2056232;28;20396;-44
2021/12/05 01:13:31;;;;;;;;;;;;;;;;;;2056906;28;20400;-43
2021/12/05 01:14:35;;;;;;;;;;;;;;;;;;2055714;28;19972;-43
2021/12/05 01:15:35;;;;;;;;;;;;;;;;;;2057569;28;19926;-43
2021/12/05 01:16:36;;;;;;;;;;;;;;;;;;2055150;28;20392;-43
2021/12/05 01:17:42;;;;;;;;;;;;;;;;;;2055144;28;19926;-43
2021/12/05 01:18:43;;;;;;;;;;;;;;;;;;2057255;28;20459;-43
2021/12/05 01:19:44;;;;;;;;;;;;;;;;;;2056134;28;19933;-43
2021/12/05 01:20:45;;;;;;;;;;;;;;;;;;2056207;28;19977;-43
2021/12/05 01:21:46;;;;;;;;;;;;;;;;;;2057242;28;19961;-43
2021/12/05 01:22:53;;;;;;;;;;;;;;;;;;2055040;28;19926;-43
2021/12/05 01:23:58;;;;;;;;;;;;;;;;;;2057320;28;19985;-43
2021/12/05 01:25:06;;;;;;;;;;;;;;;;;;2057336;28;20008;-43
2021/12/05 01:26:10;;;;;;;;;;;;;;;;;;2055366;28;19926;-43
2021/12/05 01:27:15;;;;;;;;;;;;;;;;;;2057183;28;20419;-43
2021/12/05 01:28:26;;;;;;;;;;;;;;;;;;2056378;28;20401;-43
2021/12/05 01:29:37;;;;;;;;;;;;;;;;;;2054621;28;19933;-43
2021/12/05 01:30:45;;;;;;;;;;;;;;;;;;2057282;28;19965;-43
2021/12/05 01:31:57;;;;;;;;;;;;;;;;;;2055015;28;19930;-43
2021/12/05 01:33:04;;;;;;;;;;;;;;;;;;2057407;28;20017;-43
2021/12/05 01:34:16;;;;;;;;;;;;;;;;;;2055111;28;20017;-43
2021/12/05 01:35:29;;;;;;;;;;;;;;;;;;2055548;28;20053;-43
2021/12/05 01:36:34;;;;;;;;;;;;;;;;;;2057182;28;19961;-43
2021/12/05 01:37:52;;;;;;;;;;;;;;;;;;2054324;28;20474;-43
2021/12/05 01:39:07;;;;;;;;;;;;;;;;;;2057293;28;19976;-43
2021/12/05 01:40:29;;;;;;;;;;;;;;;;;;2054911;28;20036;-43
2021/12/05 01:45:07;;;;;;;;;;;;;;;;;;2056812;28;19926;-43
2021/12/05 01:48:09;;;;;;;;;;;;;;;;;;2056269;28;19980;-43
2021/12/05 01:52:09;;;;;;;;;;;;;;;;;;2049146;28;20017;-43
2021/12/05 01:53:23;;;;;;;;;;;;;;;;;;2055915;28;20021;-43
2021/12/05 01:55:00;;;;;;;;;;;;;;;;;;2057254;28;20021;-43
2021/12/05 01:56:19;;;;;;;;;;;;;;;;;;2055329;28;20054;-43
2021/12/05 01:57:37;;;;;;;;;;;;;;;;;;2056967;28;20008;-43
2021/12/05 02:01:25;;;;;;;;;;;;;;;;;;2054862;28;19961;-43
2021/12/05 02:08:22;;;;;;;;;;;;;;;;;;2055218;28;20021;-43
2021/12/05 02:09:49;;;;;;;;;;;;;;;;;;2057339;28;19991;-43
2021/12/05 02:11:19;;;;;;;;;;;;;;;;;;2054898;28;20031;-43
2021/12/05 02:15:27;;;;;;;;;;;;;;;;;;2057019;28;19958;-43
2021/12/05 02:29:23;;;;;;;;;;;;;;;;;;2055238;28;20021;-43
2021/12/05 02:30:42;;;;;;;;;;;;;;;;;;2057059;28;19980;-47
2021/12/05 02:32:04;;;;;;;;;;;;;;;;;;2055796;28;19926;-47
2021/12/05 02:33:19;;;;;;;;;;;;;;;;;;2056941;28;19977;-46
2021/12/05 02:35:56;;;;;;;;;;;;;;;;;;2056971;28;20017;-47
2021/12/05 02:37:09;;;;;;;;;;;;;;;;;;2053793;28;20299;-46
2021/12/05 02:38:48;;;;;;;;;;;;;;;;;;2048942;29;20009;-46
2021/12/05 02:40:06;;;;;;;;;;;;;;;;;;2052080;28;20022;-47
2021/12/05 02:41:10;;;;;;;;;;;;;;;;;;2057033;28;20021;-46
2021/12/05 02:42:14;;;;;;;;;;;;;;;;;;2055847;28;20088;-48
2021/12/05 02:43:19;;;;;;;;;;;;;;;;;;2054665;28;19926;-47
2021/12/05 02:44:21;;;;;;;;;;;;;;;;;;2056953;28;20013;-46
2021/12/05 02:45:22;;;;;;;;;;;;;;;;;;2056184;28;19926;-47
2021/12/05 02:46:25;;;;;;;;;;;;;;;;;;2055906;28;19926;-46
2021/12/05 02:47:25;;;;;;;;;;;;;;;;;;2058402;28;19926;-47
2021/12/05 02:48:29;;;;;;;;;;;;;;;;;;2057341;28;20012;-47
2021/12/05 02:49:31;;;;;;;;;;;;;;;;;;2052319;28;19933;-46
2021/12/05 02:50:32;;;;;;;;;;;;;;;;;;2050363;28;20033;-48
2021/12/05 02:51:33;;;;;;;;;;;;;;;;;;2052626;28;19953;-47
2021/12/05 02:52:34;;;;;;;;;;;;;;;;;;2056558;28;20374;-47
2021/12/05 02:53:39;;;;;;;;;;;;;;;;;;2058181;28;20016;-47
2021/12/05 02:54:41;;;;;;;;;;;;;;;;;;2056081;28;19962;-48
2021/12/05 02:55:44;;;;;;;;;;;;;;;;;;2056738;28;20340;-47
2021/12/05 02:56:49;;;;;;;;;;;;;;;;;;2058107;28;20024;-47
2021/12/05 02:57:55;;;;;;;;;;;;;;;;;;2055760;28;20041;-47
2021/12/05 02:59:00;;;;;;;;;;;;;;;;;;2058487;28;19969;-43
2021/12/05 03:00:08;;;;;;;;;;;;;;;;;;2057642;28;20008;-43
2021/12/05 03:01:11;;;;;;;;;;;;;;;;;;2055872;28;19970;-43
2021/12/05 03:02:14;;;;;;;;;;;;;;;;;;2058017;28;19948;-43
2021/12/05 03:03:19;;;;;;;;;;;;;;;;;;2056000;28;19934;-43
2021/12/05 03:04:23;;;;;;;;;;;;;;;;;;2056798;28;19977;-43
2021/12/05 03:05:24;;;;;;;;;;;;;;;;;;2058234;28;20004;-43
2021/12/05 03:06:26;;;;;;;;;;;;;;;;;;2055837;28;19926;-43
2021/12/05 03:07:37;;;;;;;;;;;;;;;;;;2056921;28;19976;-43
2021/12/05 03:08:38;;;;;;;;;;;;;;;;;;2057878;28;20012;-43
2021/12/05 03:09:39;;;;;;;;;;;;;;;;;;2055518;28;19927;-43
2021/12/05 03:10:40;;;;;;;;;;;;;;;;;;2050226;29;19934;-43
2021/12/05 03:11:40;;;;;;;;;;;;;;;;;;2050048;29;19942;-43
2021/12/05 03:12:43;;;;;;;;;;;;;;;;;;2053518;28;19926;-43
2021/12/05 03:13:44;;;;;;;;;;;;;;;;;;2058014;28;19933;-43
2021/12/05 03:14:45;;;;;;;;;;;;;;;;;;2058182;28;19926;-43
2021/12/05 03:15:46;;;;;;;;;;;;;;;;;;2055917;28;19926;-43
2021/12/05 03:16:47;;;;;;;;;;;;;;;;;;2057991;28;19931;-43
2021/12/05 03:17:47;;;;;;;;;;;;;;;;;;2057592;28;19926;-43
2021/12/05 03:18:48;;;;;;;;;;;;;;;;;;2056269;28;19927;-43
2021/12/05 03:19:49;;;;;;;;;;;;;;;;;;2058105;28;19926;-43
2021/12/05 03:20:50;;;;;;;;;;;;;;;;;;2056621;28;19969;-43
2021/12/05 03:21:51;;;;;;;;;;;;;;;;;;2056126;28;20327;-43
2021/12/05 03:22:52;;;;;;;;;;;;;;;;;;2057978;28;19926;-43
2021/12/05 03:23:52;;;;;;;;;;;;;;;;;;2057455;28;19926;-43
2021/12/05 03:24:53;;;;;;;;;;;;;;;;;;2056315;28;20013;-43
2021/12/05 03:25:54;;;;;;;;;;;;;;;;;;2058114;28;20265;-43
2021/12/05 03:26:55;;;;;;;;;;;;;;;;;;2057409;28;20471;-43
2021/12/05 03:27:56;;;;;;;;;;;;;;;;;;2056597;28;19937;-42
2021/12/05 03:28:57;;;;;;;;;;;;;;;;;;2056563;28;19930;-43
2021/12/05 03:29:58;;;;;;;;;;;;;;;;;;2057130;28;19937;-43
2021/12/05 03:30:59;;;;;;;;;;;;;;;;;;2056593;28;20017;-43
2021/12/05 03:32:00;;;;;;;;;;;;;;;;;;2057846;28;20304;-43
2021/12/05 03:33:01;;;;;;;;;;;;;;;;;;2056806;28;19930;-43
2021/12/05 03:34:02;;;;;;;;;;;;;;;;;;2055746;28;19937;-43
2021/12/05 03:35:03;;;;;;;;;;;;;;;;;;2057952;28;19953;-43
2021/12/05 03:36:04;;;;;;;;;;;;;;;;;;2057042;28;19984;-44
2021/12/05 03:37:04;;;;;;;;;;;;;;;;;;2056379;28;19929;-43
2021/12/05 03:38:05;;;;;;;;;;;;;;;;;;2057890;28;19994;-43
2021/12/05 03:39:06;;;;;;;;;;;;;;;;;;2055817;28;19930;-43
2021/12/05 03:40:07;;;;;;;;;;;;;;;;;;2057717;28;19934;-43
2021/12/05 03:41:08;;;;;;;;;;;;;;;;;;2057935;28;19980;-43
2021/12/05 03:42:09;;;;;;;;;;;;;;;;;;2055873;28;19926;-43
2021/12/05 03:43:10;;;;;;;;;;;;;;;;;;2056714;28;19966;-43
2021/12/05 03:44:11;;;;;;;;;;;;;;;;;;2057904;28;20288;-43
2021/12/05 03:45:11;;;;;;;;;;;;;;;;;;2055696;28;19926;-43
2021/12/05 03:46:12;;;;;;;;;;;;;;;;;;2057867;28;19926;-43
2021/12/05 03:47:13;;;;;;;;;;;;;;;;;;2057786;28;20379;-43
2021/12/05 03:48:14;;;;;;;;;;;;;;;;;;2055627;28;20016;-43
2021/12/05 03:49:15;;;;;;;;;;;;;;;;;;2057837;28;19929;-43
2021/12/05 03:50:16;;;;;;;;;;;;;;;;;;2057883;28;19926;-43
2021/12/05 03:51:17;;;;;;;;;;;;;;;;;;2055279;28;19930;-43
2021/12/05 03:52:17;;;;;;;;;;;;;;;;;;2058118;28;19937;-43
2021/12/05 03:53:18;;;;;;;;;;;;;;;;;;2058035;28;19973;-47
2021/12/05 03:54:19;;;;;;;;;;;;;;;;;;2055461;28;19933;-47
2021/12/05 03:55:20;;;;;;;;;;;;;;;;;;2057876;28;19926;-47
2021/12/05 03:56:20;;;;;;;;;;;;;;;;;;2057234;28;20000;-47
2021/12/05 03:57:21;;;;;;;;;;;;;;;;;;2054029;28;19926;-48
2021/12/05 03:58:22;;;;;;;;;;;;;;;;;;2049905;28;20296;-49
2021/12/05 03:59:27;;;;;;;;;;;;;;;;;;2050538;28;20510;-47
2021/12/05 04:00:28;;;;;;;;;;;;;;;;;;2055247;28;20029;-47
2021/12/05 04:01:29;;;;;;;;;;;;;;;;;;2057863;28;19926;-47
2021/12/05 04:02:30;;;;;;;;;;;;;;;;;;2057193;28;19926;-47
2021/12/05 04:03:31;;;;;;;;;;;;;;;;;;2056054;28;19926;-47
2021/12/05 04:04:32;;;;;;;;;;;;;;;;;;2057710;28;20268;-47
2021/12/05 04:05:34;;;;;;;;;;;;;;;;;;2056908;28;19941;-47
2021/12/05 04:06:35;;;;;;;;;;;;;;;;;;2056370;28;20452;-46
2021/12/05 04:07:35;;;;;;;;;;;;;;;;;;2057667;28;19927;-49
2021/12/05 04:08:39;;;;;;;;;;;;;;;;;;2056890;28;19973;-46
2021/12/05 04:09:39;;;;;;;;;;;;;;;;;;2056399;28;20013;-46
2021/12/05 04:10:40;;;;;;;;;;;;;;;;;;2057753;28;19966;-47
2021/12/05 04:11:45;;;;;;;;;;;;;;;;;;2055730;28;19926;-48
2021/12/05 04:12:46;;;;;;;;;;;;;;;;;;2057572;28;20020;-49
2021/12/05 04:13:47;;;;;;;;;;;;;;;;;;2057819;28;20387;-47
2021/12/05 04:14:48;;;;;;;;;;;;;;;;;;2055647;28;20005;-46
2021/12/05 04:15:49;;;;;;;;;;;;;;;;;;2056780;28;19933;-48
2021/12/05 04:16:50;;;;;;;;;;;;;;;;;;2057523;28;19930;-49
2021/12/05 04:17:51;;;;;;;;;;;;;;;;;;2054595;28;19930;-48
2021/12/05 04:18:52;;;;;;;;;;;;;;;;;;2049510;28;19927;-47
2021/12/05 04:19:53;;;;;;;;;;;;;;;;;;2049710;28;19926;-47
2021/12/05 04:20:53;;;;;;;;;;;;;;;;;;2053005;28;19933;-45
2021/12/05 04:21:54;;;;;;;;;;;;;;;;;;2057791;28;19926;-43
2021/12/05 04:22:55;;;;;;;;;;;;;;;;;;2057728;28;19929;-43
2021/12/05 04:23:57;;;;;;;;;;;;;;;;;;2055303;28;20374;-43
2021/12/05 04:24:57;;;;;;;;;;;;;;;;;;2057662;28;19930;-43
2021/12/05 04:25:58;;;;;;;;;;;;;;;;;;2057090;28;19961;-43
2021/12/05 04:26:59;;;;;;;;;;;;;;;;;;2055614;28;19926;-43
2021/12/05 04:28:00;;;;;;;;;;;;;;;;;;2057636;28;19937;-43
2021/12/05 04:29:01;;;;;;;;;;;;;;;;;;2055762;28;19957;-43
2021/12/05 04:30:01;;;;;;;;;;;;;;;;;;2055621;28;19930;-43
2021/12/05 04:31:03;;;;;;;;;;;;;;;;;;2057589;28;19926;-43
2021/12/05 04:32:04;;;;;;;;;;;;;;;;;;2055662;28;19926;-43
2021/12/05 04:33:04;;;;;;;;;;;;;;;;;;2055951;28;19934;-43
2021/12/05 04:34:05;;;;;;;;;;;;;;;;;;2057623;28;19926;-43
2021/12/05 04:35:06;;;;;;;;;;;;;;;;;;2055680;28;20005;-43
2021/12/05 04:36:07;;;;;;;;;;;;;;;;;;2055963;28;19937;-43
2021/12/05 04:37:08;;;;;;;;;;;;;;;;;;2057352;28;19937;-43
2021/12/05 04:38:09;;;;;;;;;;;;;;;;;;2056783;28;19933;-43
2021/12/05 04:39:09;;;;;;;;;;;;;;;;;;2056065;28;20399;-43
2021/12/05 04:40:10;;;;;;;;;;;;;;;;;;2057629;28;19926;-43
2021/12/05 04:41:11;;;;;;;;;;;;;;;;;;2056543;28;19933;-43
2021/12/05 04:42:12;;;;;;;;;;;;;;;;;;2051728;28;19926;-43
2021/12/05 04:43:13;;;;;;;;;;;;;;;;;;2049535;28;20041;-43
2021/12/05 04:44:14;;;;;;;;;;;;;;;;;;2052046;28;19929;-43
2021/12/05 04:45:14;;;;;;;;;;;;;;;;;;2055563;28;19999;-43
2021/12/05 04:46:15;;;;;;;;;;;;;;;;;;2057420;28;20385;-43
2021/12/05 04:47:16;;;;;;;;;;;;;;;;;;2055637;28;20290;-43
2021/12/05 04:48:17;;;;;;;;;;;;;;;;;;2055733;28;19930;-43
2021/12/05 04:49:18;;;;;;;;;;;;;;;;;;2057429;28;20280;-43
2021/12/05 04:50:19;;;;;;;;;;;;;;;;;;2054978;28;19941;-43
2021/12/05 04:52:39;;;;;;;;;;;;;;;;;;2057338;28;20013;-42
2021/12/05 04:53:40;;;;;;;;;;;;;;;;;;2054259;28;19926;-43
2021/12/05 04:54:41;;;;;;;;;;;;;;;;;;2057464;28;19926;-43
2021/12/05 04:55:42;;;;;;;;;;;;;;;;;;2057087;28;20380;-43
2021/12/05 04:56:44;;;;;;;;;;;;;;;;;;2055475;28;19926;-43
2021/12/05 04:57:45;;;;;;;;;;;;;;;;;;2057494;28;20064;-43
2021/12/05 04:58:46;;;;;;;;;;;;;;;;;;2055846;28;20016;-43
2021/12/05 04:59:50;;;;;;;;;;;;;;;;;;2054897;28;20346;-42
2021/12/05 05:00:51;;;;;;;;;;;;;;;;;;2057428;28;20029;-43
2021/12/05 05:01:52;;;;;;;;;;;;;;;;;;2055245;28;19926;-43
2021/12/05 05:02:53;;;;;;;;;;;;;;;;;;2056255;28;19933;-43
2021/12/05 05:03:54;;;;;;;;;;;;;;;;;;2057415;28;19926;-43
2021/12/05 05:04:57;;;;;;;;;;;;;;;;;;2053040;28;19934;-43
2021/12/05 05:06:03;;;;;;;;;;;;;;;;;;2057293;28;20017;-43
2021/12/05 05:07:05;;;;;;;;;;;;;;;;;;2057455;28;20069;-43
2021/12/05 05:08:06;;;;;;;;;;;;;;;;;;2055016;28;20033;-43
2021/12/05 05:09:06;;;;;;;;;;;;;;;;;;2056814;28;19937;-43
2021/12/05 05:10:07;;;;;;;;;;;;;;;;;;2057348;28;20391;-43
2021/12/05 05:11:08;;;;;;;;;;;;;;;;;;2055110;28;19985;-43
2021/12/05 05:12:09;;;;;;;;;;;;;;;;;;2057405;28;19926;-43
2021/12/05 05:13:10;;;;;;;;;;;;;;;;;;2057449;28;20005;-47
2021/12/05 05:14:12;;;;;;;;;;;;;;;;;;2057119;28;20041;-43
2021/12/05 05:15:13;;;;;;;;;;;;;;;;;;2057345;28;20467;-43
2021/12/05 05:16:15;;;;;;;;;;;;;;;;;;2056308;28;20025;-43
2021/12/05 05:17:16;;;;;;;;;;;;;;;;;;2055984;28;20181;-43
2021/12/05 05:18:17;;;;;;;;;;;;;;;;;;2057428;28;19930;-43
2021/12/05 05:19:21;;;;;;;;;;;;;;;;;;2054978;28;20013;-43
2021/12/05 05:20:24;;;;;;;;;;;;;;;;;;2057233;28;19926;-43
2021/12/05 05:21:36;;;;;;;;;;;;;;;;;;2057294;28;20013;-43
2021/12/05 05:22:43;;;;;;;;;;;;;;;;;;2055295;28;20388;-44
2021/12/05 05:24:02;;;;;;;;;;;;;;;;;;2057295;28;20016;-43
2021/12/05 05:25:43;;;;;;;;;;;;;;;;;;2054146;28;20182;-43
2021/12/05 05:27:04;;;;;;;;;;;;;;;;;;2057182;28;20410;-43
2021/12/05 05:28:35;;;;;;;;;;;;;;;;;;2055022;28;20009;-43
2021/12/05 05:39:37;;;;;;;;;;;;;;;;;;2057206;28;20444;-43
2021/12/05 05:41:05;;;;;;;;;;;;;;;;;;2055317;28;20020;-43
2021/12/05 05:42:53;;;;;;;;;;;;;;;;;;2057189;28;20012;-43
2021/12/05 05:44:14;;;;;;;;;;;;;;;;;;2056642;28;20037;-43
2021/12/05 05:46:40;;;;;;;;;;;;;;;;;;2039136;29;20025;-49
2021/12/05 05:47:50;;;;;;;;;;;;;;;;;;2054923;28;20050;-47
2021/12/05 05:48:57;;;;;;;;;;;;;;;;;;2055222;28;19970;-47
2021/12/05 05:49:59;;;;;;;;;;;;;;;;;;2056194;28;20364;-47
2021/12/05 05:51:00;;;;;;;;;;;;;;;;;;2057125;28;20423;-46
2021/12/05 05:52:00;;;;;;;;;;;;;;;;;;2053745;28;19934;-45
2021/12/05 05:53:01;;;;;;;;;;;;;;;;;;2057034;28;20016;-45
2021/12/05 05:54:02;;;;;;;;;;;;;;;;;;2057209;28;19930;-50
2021/12/05 05:55:03;;;;;;;;;;;;;;;;;;2054965;28;19956;-43
2021/12/05 05:56:04;;;;;;;;;;;;;;;;;;2057192;28;19941;-44
2021/12/05 05:57:13;;;;;;;;;;;;;;;;;;2056960;28;20381;-42
2021/12/05 05:58:14;;;;;;;;;;;;;;;;;;2054779;28;20013;-42
2021/12/05 05:59:19;;;;;;;;;;;;;;;;;;2057466;28;19965;-46
2021/12/05 06:00:29;;;;;;;;;;;;;;;;;;2056554;28;19976;-47
2021/12/05 06:01:55;;;;;;;;;;;;;;;;;;2055428;28;20020;-45
2021/12/05 06:04:15;;;;;;;;;;;;;;;;;;2054472;28;20069;-42
2021/12/05 06:05:16;;;;;;;;;;;;;;;;;;2057092;28;20026;-42
2021/12/05 06:06:17;;;;;;;;;;;;;;;;;;2056412;28;20371;-41
2021/12/05 06:07:18;;;;;;;;;;;;;;;;;;2055334;28;19933;-48
2021/12/05 06:08:20;;;;;;;;;;;;;;;;;;2057113;28;20422;-46
2021/12/05 06:09:21;;;;;;;;;;;;;;;;;;2056101;28;20024;-48
2021/12/05 06:10:22;;;;;;;;;;;;;;;;;;2055893;28;20426;-47
2021/12/05 06:11:23;;;;;;;;;;;;;;;;;;2057006;28;19980;-49
2021/12/05 06:12:24;;;;;;;;;;;;;;;;;;2056333;28;19934;-43
2021/12/05 06:13:25;;;;;;;;;;;;;;;;;;2049739;28;19954;-43
2021/12/05 06:14:27;;;;;;;;;;;;;;;;;;2049389;28;20399;-47
2021/12/05 06:15:28;;;;;;;;;;;;;;;;;;2052191;28;19926;-47
2021/12/05 06:16:29;;;;;;;;;;;;;;;;;;2055992;28;20020;-43
2021/12/05 06:17:30;;;;;;;;;;;;;;;;;;2056987;28;19954;-43
2021/12/05 06:18:31;;;;;;;;;;;;;;;;;;2054805;28;19926;-43
2021/12/05 06:19:32;;;;;;;;;;;;;;;;;;2056975;28;20431;-47
2021/12/05 06:20:33;;;;;;;;;;;;;;;;;;2056998;28;20020;-48
2021/12/05 06:21:34;;;;;;;;;;;;;;;;;;2055990;28;19926;-48
2021/12/05 06:22:35;;;;;;;;;;;;;;;;;;2058272;28;20012;-49
2021/12/05 06:23:36;;;;;;;;;;;;;;;;;;2058383;28;20339;-51
2021/12/05 06:24:37;;;;;;;;;;;;;;;;;;2055318;28;19934;-51
2021/12/05 06:25:38;;;;;;;;;;;;;;;;;;2050367;28;20029;-48
2021/12/05 06:26:40;;;;;;;;;;;;;;;;;;2050428;28;20018;-50
2021/12/05 06:27:44;;;;;;;;;;;;;;;;;;2055286;28;20418;-48
2021/12/05 06:28:46;;;;;;;;;;;;;;;;;;2056860;28;20016;-47
2021/12/05 06:29:52;;;;;;;;;;;;;;;;;;2057700;28;20464;-50
2021/12/05 06:30:57;;;;;;;;;;;;;;;;;;2056098;28;19989;-47
2021/12/05 06:32:18;;;;;;;;;;;;;;;;;;2058180;28;19930;-51
2021/12/05 06:37:44;;;;;;;;;;;;;;;;;;2056987;28;19965;-44
2021/12/05 06:40:36;;;;;;;;;;;;;;;;;;2043692;28;20331;-43
2021/12/05 06:41:59;;;;;;;;;;;;;;;;;;2058334;28;20423;-43
2021/12/05 06:43:04;;;;;;;;;;;;;;;;;;2056868;28;20016;-43
2021/12/05 06:46:39;;;;;;;;;;;;;;;;;;2050302;29;20026;-44
2021/12/05 06:47:40;;;;;;;;;;;;;;;;;;2050666;28;20017;-46
2021/12/05 06:48:42;;;;;;;;;;;;;;;;;;2056672;28;19930;-51
2021/12/05 06:49:43;;;;;;;;;;;;;;;;;;2058105;28;20028;-48
2021/12/05 06:51:01;;;;;;;;;;;;;;;;;;2054822;28;19930;-47
2021/12/05 06:52:01;;;;;;;;;;;;;;;;;;2056768;28;19933;-51
2021/12/05 06:53:06;;;;;;;;;;;;;;;;;;2058197;28;19930;-50
2021/12/05 06:54:08;;;;;;;;;;;;;;;;;;2056079;28;20463;-48
2021/12/05 06:55:08;;;;;;;;;;;;;;;;;;2057087;28;20012;-48
2021/12/05 06:56:09;;;;;;;;;;;;;;;;;;2058204;28;19934;-49
2021/12/05 06:57:10;;;;;;;;;;;;;;;;;;2056224;28;19926;-44
2021/12/05 06:58:11;;;;;;;;;;;;;;;;;;2057840;28;20472;-44
2021/12/05 06:59:12;;;;;;;;;;;;;;;;;;2058277;28;19933;-44
2021/12/05 07:00:13;;;;;;;;;;;;;;;;;;2056001;28;20268;-44
2021/12/05 07:01:14;;;;;;;;;;;;;;;;;;2057986;28;19926;-43
2021/12/05 07:02:15;;;;;;;;;;;;;;;;;;2058139;28;19944;-45
2021/12/05 07:03:16;;;;;;;;;;;;;;;;;;2055945;28;20281;-47
2021/12/05 07:04:39;;;;;;;;;;;;;;;;;;2058215;28;19965;-47
2021/12/05 07:05:49;;;;;;;;;;;;;;;;;;2057680;28;19991;-41
2021/12/05 07:06:50;;;;;;;;;;;;;;;;;;2055852;28;19945;-45
2021/12/05 07:07:51;;;;;;;;;;;;;;;;;;2057668;28;19930;-46
2021/12/05 07:08:58;;;;;;;;;;;;;;;;;;2057074;28;20311;-49
2021/12/05 07:09:58;;;;;;;;;;;;;;;;;;2056845;28;20020;-46
2021/12/05 07:11:04;;;;;;;;;;;;;;;;;;2058192;28;19926;-47
2021/12/05 07:12:32;;;;;;;;;;;;;;;;;;2055784;28;19934;-45
2021/12/05 07:14:54;;;;;;;;;;;;;;;;;;2027678;29;19950;-46
2021/12/05 07:15:59;;;;;;;;;;;;;;;;;;2044799;29;20022;-47
2021/12/05 07:17:04;;;;;;;;;;;;;;;;;;2049652;28;20387;-47
2021/12/05 07:19:36;;;;;;;;;;;;;;;;;;2058159;28;19926;-46
2021/12/05 07:20:49;;;;;;;;;;;;;;;;;;2055905;28;20033;-45
2021/12/05 07:21:54;;;;;;;;;;;;;;;;;;2058313;28;20010;-46
2021/12/05 07:23:11;;;;;;;;;;;;;;;;;;2057638;28;20016;-46
2021/12/05 07:24:23;;;;;;;;;;;;;;;;;;2056500;28;20021;-49
2021/12/05 07:25:30;;;;;;;;;;;;;;;;;;2058273;28;20021;-43
2021/12/05 07:26:47;;;;;;;;;;;;;;;;;;2054890;28;20025;-50
2021/12/05 07:41:09;;;;;;;;;;;;;;;;;;2056041;28;20017;-44
2021/12/05 07:42:18;;;;;;;;;;;;;;;;;;2049931;28;20050;-44
2021/12/05 07:43:19;;;;;;;;;;;;;;;;;;2049983;29;20013;-45
2021/12/05 07:44:20;;;;;;;;;;;;;;;;;;2054856;28;19926;-44
2021/12/05 07:45:26;;;;;;;;;;;;;;;;;;2057979;28;19934;-47
2021/12/05 07:46:27;;;;;;;;;;;;;;;;;;2057484;28;20016;-45
2021/12/05 07:47:30;;;;;;;;;;;;;;;;;;2055913;28;19930;-44
2021/12/05 07:48:34;;;;;;;;;;;;;;;;;;2057856;28;19926;-45
2021/12/05 07:49:35;;;;;;;;;;;;;;;;;;2057076;28;20043;-48
2021/12/05 07:50:43;;;;;;;;;;;;;;;;;;2055051;28;20409;-46
2021/12/05 07:51:46;;;;;;;;;;;;;;;;;;2057846;28;20347;-49
2021/12/05 07:52:53;;;;;;;;;;;;;;;;;;2056437;28;20020;-49
2021/12/05 07:53:59;;;;;;;;;;;;;;;;;;2057607;28;20391;-45
2021/12/05 07:55:09;;;;;;;;;;;;;;;;;;2057857;28;20016;-46
2021/12/05 07:56:15;;;;;;;;;;;;;;;;;;2055646;28;19931;-48
2021/12/05 07:57:23;;;;;;;;;;;;;;;;;;2057707;28;20392;-46
2021/12/05 07:58:50;;;;;;;;;;;;;;;;;;2057355;28;19969;-47
2021/12/05 08:00:04;;;;;;;;;;;;;;;;;;2057212;28;19932;-45
2021/12/05 08:01:24;;;;;;;;;;;;;;;;;;2057834;28;20025;-45
2021/12/05 08:14:34;;;;;;;;;;;;;;;;;;2057760;28;20029;-50
2021/12/05 08:15:42;;;;;;;;;;;;;;;;;;2057676;28;20020;-51
2021/12/05 08:16:47;;;;;;;;;;;;;;;;;;2054465;28;19934;-51
2021/12/05 08:17:52;;;;;;;;;;;;;;;;;;2057578;28;20241;-51
2021/12/05 08:18:53;;;;;;;;;;;;;;;;;;2056746;28;19926;-52
2021/12/05 08:19:54;;;;;;;;;;;;;;;;;;2055112;28;19926;-50
2021/12/05 08:20:55;;;;;;;;;;;;;;;;;;2057774;28;20017;-49
2021/12/05 08:21:56;;;;;;;;;;;;;;;;;;2054644;28;20001;-49
2021/12/05 08:22:57;;;;;;;;;;;;;;;;;;2055855;28;20159;-51
2021/12/05 08:23:57;;;;;;;;;;;;;;;;;;2057635;28;19926;-50
2021/12/05 08:25:08;;;;;;;;;;;;;;;;;;2055821;28;19930;-50
2021/12/05 08:26:14;;;;;;;;;;;;;;;;;;2057047;28;19985;-50
2021/12/05 08:27:15;;;;;;;;;;;;;;;;;;2057607;28;19977;-49
2021/12/05 08:28:29;;;;;;;;;;;;;;;;;;2055238;28;20009;-52
2021/12/05 08:29:36;;;;;;;;;;;;;;;;;;2056093;28;20443;-53
2021/12/05 08:30:37;;;;;;;;;;;;;;;;;;2056891;28;20479;-53
2021/12/05 08:31:56;;;;;;;;;;;;;;;;;;2055852;28;19952;-52
2021/12/05 08:33:14;;;;;;;;;;;;;;;;;;2057355;28;20017;-55
2021/12/05 08:34:40;;;;;;;;;;;;;;;;;;2055304;28;20025;-52
2021/12/05 08:37:36;;;;;;;;;;;;;;;;;;2026211;29;19934;-51
2021/12/05 08:40:38;;;;;;;;;;;;;;;;;;2022871;29;21049;-51
2021/12/05 08:42:01;;;;;;;;;;;;;;;;;;2024987;29;20007;-52
2021/12/05 08:43:28;;;;;;;;;;;;;;;;;;2049549;28;20013;-53
2021/12/05 09:08:18;;;;;;;;;;;;;;;;;;2030450;29;19978;-51
2021/12/05 09:21:30;;;;;;;;;;;;;;;;;;2056660;28;19936;-49
2021/12/05 09:23:19;;;;;;;;;;;;;;;;;;2056873;28;20402;-51
2021/12/05 09:26:05;;;;;;;;;;;;;;;;;;2048374;28;20009;-50
2021/12/05 09:40:01;;;;;;;;;;;;;;;;;;2055173;28;20001;-44
2021/12/05 10:01:56;;;;;;;;;;;;;;;;;;2057174;28;20016;-49
2021/12/05 10:03:06;;;;;;;;;;;;;;;;;;2054993;28;19930;-53
2021/12/05 10:06:52;;;;;;;;;;;;;;;;;;2055952;28;20009;-46
2021/12/05 10:09:27;;;;;;;;;;;;;;;;;;2024208;29;20026;-49
2021/12/05 10:10:36;;;;;;;;;;;;;;;;;;2057213;28;19930;-50
2021/12/05 10:11:47;;;;;;;;;;;;;;;;;;2056258;28;20022;-50
2021/12/05 10:13:07;;;;;;;;;;;;;;;;;;2056945;28;19930;-50
2021/12/05 10:14:19;;;;;;;;;;;;;;;;;;2057087;28;20073;-49
2021/12/05 10:15:31;;;;;;;;;;;;;;;;;;2055035;28;19966;-49
2021/12/05 10:16:38;;;;;;;;;;;;;;;;;;2057019;28;20368;-49
2021/12/05 10:17:54;;;;;;;;;;;;;;;;;;2055134;28;19938;-45
2021/12/05 10:26:05;;;;;;;;;;;;;;;;;;2051728;28;20372;-45
2021/12/05 10:26:28;;;;;;;;;;;;;;;;;;2056058;28;19970;-50
2021/12/05 10:34:07;;;;;;;;;;;;;;;;;;2057082;28;20009;-51
2021/12/05 10:35:25;;;;;;;;;;;;;;;;;;2055800;28;19926;-50
2021/12/05 10:36:27;;;;;;;;;;;;;;;;;;2056829;28;20328;-50
2021/12/05 10:37:28;;;;;;;;;;;;;;;;;;2056911;28;19969;-52
2021/12/05 10:38:31;;;;;;;;;;;;;;;;;;2054643;28;19941;-49
2021/12/05 10:39:32;;;;;;;;;;;;;;;;;;2056936;28;19926;-51
2021/12/05 10:40:36;;;;;;;;;;;;;;;;;;2057030;28;20426;-53
2021/12/05 10:41:58;;;;;;;;;;;;;;;;;;2054529;28;20020;-49
2021/12/05 10:42:59;;;;;;;;;;;;;;;;;;2057041;28;19926;-51
2021/12/05 10:44:00;;;;;;;;;;;;;;;;;;2055934;28;20344;-50
2021/12/05 10:45:00;;;;;;;;;;;;;;;;;;2055426;28;19978;-50
2021/12/05 10:46:03;;;;;;;;;;;;;;;;;;2056797;28;19930;-49
2021/12/05 10:47:04;;;;;;;;;;;;;;;;;;2055262;28;19934;-51
2021/12/05 10:48:06;;;;;;;;;;;;;;;;;;2055236;28;19926;-50
2021/12/05 10:49:06;;;;;;;;;;;;;;;;;;2056979;28;19957;-49
2021/12/05 10:50:07;;;;;;;;;;;;;;;;;;2054716;28;19926;-52
2021/12/05 10:51:08;;;;;;;;;;;;;;;;;;2056586;28;19976;-52
2021/12/05 10:52:09;;;;;;;;;;;;;;;;;;2056866;28;19926;-49
2021/12/05 10:53:10;;;;;;;;;;;;;;;;;;2053464;28;19926;-53
2021/12/05 10:54:11;;;;;;;;;;;;;;;;;;2056579;28;19927;-51
2021/12/05 10:55:11;;;;;;;;;;;;;;;;;;2056756;28;19930;-49
2021/12/05 10:56:12;;;;;;;;;;;;;;;;;;2054736;28;19926;-51
2021/12/05 10:57:15;;;;;;;;;;;;;;;;;;2056894;28;19930;-47
2021/12/05 10:58:16;;;;;;;;;;;;;;;;;;2056711;28;20295;-46
2021/12/05 10:59:17;;;;;;;;;;;;;;;;;;2053133;28;19926;-45
2021/12/05 11:00:17;;;;;;;;;;;;;;;;;;2056783;28;19988;-46
2021/12/05 11:01:18;;;;;;;;;;;;;;;;;;2056774;28;20395;-47
2021/12/05 11:02:24;;;;;;;;;;;;;;;;;;2054371;28;19926;-48
2021/12/05 11:03:28;;;;;;;;;;;;;;;;;;2056811;28;20388;-47